Knab, Washington
Current Conditions -  °F | °C
As of 4:15 AM on Saturday 20 Dec 2014 (Local Time) from KCLS Reporting Station
Drizzle Drizzle  
Wind Chill: 41°   Ceiling: 2600
Heat Index: 46°   Visibility: 10mi
Dew Point: 46°   Wind: 12mph
Humidity: 100%   Direction: 180°S
Pressure: 29.72"   Gusts: 17mph
Location:  46.4364°N, 122.718°W
Report Text: KCLS 201215Z AUTO 18010G15KT 10SM -DZ SCT019 OVC026 08/08 A2972 RMK AO2
Loading
Personal Weather Stations






























Interactive Weather Map New forecast layout! Learn more

10-Day Weather Forecast

Advertisements
Track Severe Weather on mobile